BAW82 EGLL-DGAA
Flight info
| Callsign | BAW82 |
|---|---|
| Flight time | N/A |
| Altitude | 38000 |
| Route | MODMI M185 MID L151 SITET UN859 SOPIL DCT BALAN DCT EVPOK DCT NARAK DCT GAI DCT LOMRA DCT ROCAN DCT PUMAL DCT XEPLA DCT BCN DCT GARBI DCT LARPA DCT TOLSO DCT LISAS DCT MJV N859 MOGIL UB31 ZEM/N0490F360 UZ333 KAHIL UB726 GHA/N0487F370 UA615 TMS UA604 EREBO/N0493F380 DCT MIGNI DCT ABALA DCT IPUTA DCT TATAT DCT KILMO DCT LITEX LITEX1B |
| Aircraft | A35K/H-SDE2E3GHIJ3J4J5LM1ORWXY/LB1D1 |
Departure
| Time | 2026-05-06 15:16 |
|---|---|
| Airport | London Heathrow Airport (EGLL) |
Arrival
| Time | N/A |
|---|---|
| Airport | Kotoka International Airport (DGAA) |
| Time | Latitude | Longitude | Altitude | Speed | Heading |
|---|---|---|---|---|---|
| 2026-05-06 14:37 | 51.47124 | -0.47725 | 96 ft | 0 kts | 89° |
| 2026-05-06 15:05 | 51.47124 | -0.47739 | 95 ft | 4 kts | 89° |
| 2026-05-06 15:06 | 51.47123 | -0.47781 | 93 ft | 4 kts | 89° |
| 2026-05-06 15:06 | 51.47123 | -0.47817 | 93 ft | 4 kts | 91° |
| 2026-05-06 15:06 | 51.47128 | -0.47855 | 92 ft | 4 kts | 134° |
| 2026-05-06 15:06 | 51.47149 | -0.47870 | 94 ft | 3 kts | 179° |
| 2026-05-06 15:07 | 51.47175 | -0.47871 | 93 ft | 4 kts | 179° |
| 2026-05-06 15:07 | 51.47184 | -0.47871 | 92 ft | 0 kts | 179° |
| 2026-05-06 15:10 | 51.47182 | -0.47871 | 92 ft | 1 kts | 179° |
| 2026-05-06 15:10 | 51.47146 | -0.47870 | 92 ft | 9 kts | 179° |
| 2026-05-06 15:10 | 51.47057 | -0.47869 | 94 ft | 16 kts | 179° |
| 2026-05-06 15:10 | 51.46931 | -0.47868 | 92 ft | 19 kts | 180° |
| 2026-05-06 15:11 | 51.46797 | -0.47869 | 93 ft | 16 kts | 184° |
| 2026-05-06 15:11 | 51.46743 | -0.47988 | 94 ft | 15 kts | 266° |
| 2026-05-06 15:11 | 51.46743 | -0.48077 | 92 ft | 0 kts | 270° |
| 2026-05-06 15:13 | 51.46743 | -0.48094 | 94 ft | 4 kts | 270° |
| 2026-05-06 15:13 | 51.46743 | -0.48173 | 93 ft | 10 kts | 269° |
| 2026-05-06 15:13 | 51.46742 | -0.48306 | 92 ft | 14 kts | 270° |
| 2026-05-06 15:13 | 51.46742 | -0.48491 | 92 ft | 19 kts | 270° |
| 2026-05-06 15:14 | 51.46736 | -0.48685 | 92 ft | 14 kts | 254° |
| 2026-05-06 15:14 | 51.46659 | -0.48748 | 93 ft | 14 kts | 183° |
| 2026-05-06 15:14 | 51.46613 | -0.48762 | 95 ft | 2 kts | 195° |
| 2026-05-06 15:14 | 51.46587 | -0.48775 | 94 ft | 7 kts | 197° |
| 2026-05-06 15:15 | 51.46524 | -0.48779 | 95 ft | 11 kts | 168° |
| 2026-05-06 15:15 | 51.46478 | -0.48664 | 95 ft | 14 kts | 89° |
| 2026-05-06 15:15 | 51.46478 | -0.48599 | 93 ft | 1 kts | 89° |
| 2026-05-06 15:15 | 51.46480 | -0.48465 | 92 ft | 37 kts | 89° |
| 2026-05-06 15:16 | 51.46481 | -0.47667 | 93 ft | 104 kts | 90° |
| 2026-05-06 15:16 | 51.46486 | -0.46196 | 98 ft | 159 kts | 90° |
| 2026-05-06 15:16 | 51.46462 | -0.44344 | 653 ft | 160 kts | 94° |
| 2026-05-06 15:16 | 51.46320 | -0.42623 | 1338 ft | 164 kts | 101° |
| 2026-05-06 15:17 | 51.45864 | -0.40762 | 1586 ft | 191 kts | 117° |
| 2026-05-06 15:17 | 51.45077 | -0.38914 | 1947 ft | 211 kts | 133° |
| 2026-05-06 15:17 | 51.43723 | -0.37847 | 2362 ft | 229 kts | 170° |
| 2026-05-06 15:17 | 51.42084 | -0.37347 | 2698 ft | 250 kts | 174° |
| 2026-05-06 15:18 | 51.40310 | -0.36963 | 3044 ft | 269 kts | 175° |
| 2026-05-06 15:18 | 51.38460 | -0.37257 | 3801 ft | 269 kts | 203° |
| 2026-05-06 15:18 | 51.36731 | -0.38442 | 4486 ft | 274 kts | 210° |
| 2026-05-06 15:18 | 51.35001 | -0.39793 | 5189 ft | 278 kts | 211° |
| 2026-05-06 15:19 | 51.33269 | -0.41150 | 5760 ft | 278 kts | 211° |
| 2026-05-06 15:19 | 51.31533 | -0.42505 | 6042 ft | 278 kts | 211° |
| 2026-05-06 15:19 | 51.29793 | -0.43876 | 6571 ft | 281 kts | 212° |
| 2026-05-06 15:19 | 51.28033 | -0.45261 | 7351 ft | 282 kts | 212° |
| 2026-05-06 15:20 | 51.26267 | -0.46662 | 8183 ft | 285 kts | 212° |
| 2026-05-06 15:20 | 51.24481 | -0.48091 | 8985 ft | 288 kts | 211° |
| 2026-05-06 15:20 | 51.22680 | -0.49532 | 9795 ft | 291 kts | 211° |
| 2026-05-06 15:20 | 51.20863 | -0.51027 | 10424 ft | 300 kts | 212° |
| 2026-05-06 15:21 | 51.18950 | -0.52624 | 10758 ft | 320 kts | 212° |
| 2026-05-06 15:21 | 51.16919 | -0.54309 | 11073 ft | 339 kts | 212° |
| 2026-05-06 15:21 | 51.14757 | -0.56062 | 11396 ft | 357 kts | 211° |
| 2026-05-06 15:21 | 51.12477 | -0.57855 | 11742 ft | 373 kts | 209° |
| 2026-05-06 15:22 | 51.10065 | -0.59563 | 12234 ft | 385 kts | 204° |
| 2026-05-06 15:22 | 51.07457 | -0.60714 | 12914 ft | 392 kts | 193° |
| 2026-05-06 15:22 | 51.04725 | -0.61081 | 13670 ft | 397 kts | 182° |
| 2026-05-06 15:22 | 51.02007 | -0.60557 | 14312 ft | 402 kts | 169° |
| 2026-05-06 15:23 | 50.99323 | -0.59252 | 15019 ft | 404 kts | 163° |
| 2026-05-06 15:23 | 50.96690 | -0.57652 | 15649 ft | 409 kts | 161° |
| 2026-05-06 15:23 | 50.94051 | -0.55893 | 16221 ft | 414 kts | 159° |
| 2026-05-06 15:23 | 50.91405 | -0.54067 | 16941 ft | 415 kts | 159° |
| 2026-05-06 15:24 | 50.88747 | -0.52237 | 17594 ft | 419 kts | 160° |
| 2026-05-06 15:24 | 50.86051 | -0.50405 | 18212 ft | 423 kts | 160° |
| 2026-05-06 15:24 | 50.83331 | -0.48586 | 18795 ft | 426 kts | 161° |
| 2026-05-06 15:24 | 50.80587 | -0.46774 | 19405 ft | 429 kts | 160° |
| 2026-05-06 15:25 | 50.77825 | -0.44963 | 20059 ft | 431 kts | 161° |
| 2026-05-06 15:25 | 50.75039 | -0.43145 | 20661 ft | 435 kts | 161° |
| 2026-05-06 15:25 | 50.72231 | -0.41318 | 21222 ft | 439 kts | 161° |
| 2026-05-06 15:25 | 50.69392 | -0.39473 | 21854 ft | 441 kts | 161° |
| 2026-05-06 15:26 | 50.66539 | -0.37620 | 22437 ft | 445 kts | 161° |
| 2026-05-06 15:26 | 50.63660 | -0.35751 | 23001 ft | 449 kts | 161° |
| 2026-05-06 15:26 | 50.60763 | -0.33871 | 23584 ft | 452 kts | 161° |
| 2026-05-06 15:26 | 50.57842 | -0.31978 | 24069 ft | 456 kts | 161° |
| 2026-05-06 15:27 | 50.54900 | -0.30073 | 24567 ft | 459 kts | 161° |
| 2026-05-06 15:27 | 50.51940 | -0.28158 | 25071 ft | 462 kts | 161° |
| 2026-05-06 15:27 | 50.48990 | -0.26254 | 25532 ft | 465 kts | 161° |
| 2026-05-06 15:27 | 50.45994 | -0.24322 | 26015 ft | 468 kts | 161° |
| 2026-05-06 15:28 | 50.42969 | -0.22375 | 26494 ft | 471 kts | 161° |
| 2026-05-06 15:28 | 50.39929 | -0.20421 | 26955 ft | 473 kts | 161° |
| 2026-05-06 15:28 | 50.36874 | -0.18459 | 27428 ft | 476 kts | 160° |
| 2026-05-06 15:28 | 50.33794 | -0.16485 | 27894 ft | 479 kts | 161° |
| 2026-05-06 15:29 | 50.30694 | -0.14501 | 28332 ft | 482 kts | 161° |
| 2026-05-06 15:29 | 50.27580 | -0.12511 | 28744 ft | 485 kts | 160° |
| 2026-05-06 15:29 | 50.24449 | -0.10512 | 29148 ft | 488 kts | 161° |
| 2026-05-06 15:29 | 50.21303 | -0.08507 | 29531 ft | 490 kts | 161° |
| 2026-05-06 15:30 | 50.18144 | -0.06457 | 29949 ft | 492 kts | 159° |
| 2026-05-06 15:30 | 50.15020 | -0.04312 | 30481 ft | 489 kts | 159° |
| 2026-05-06 15:30 | 50.11915 | -0.02145 | 30915 ft | 489 kts | 159° |
| 2026-05-06 15:30 | 50.08729 | -0.00336 | 31325 ft | 487 kts | 167° |
| 2026-05-06 15:31 | 50.05469 | 0.01123 | 31711 ft | 486 kts | 168° |
| 2026-05-06 15:31 | 50.02184 | 0.02479 | 32053 ft | 487 kts | 169° |
| 2026-05-06 15:31 | 49.98900 | 0.03771 | 32392 ft | 487 kts | 169° |
| 2026-05-06 15:32 | 49.92349 | 0.06291 | 33017 ft | 488 kts | 169° |
| 2026-05-06 15:32 | 49.89050 | 0.07561 | 33380 ft | 488 kts | 169° |
| 2026-05-06 15:32 | 49.85754 | 0.08834 | 33719 ft | 487 kts | 169° |
| 2026-05-06 15:32 | 49.82461 | 0.10111 | 34017 ft | 487 kts | 169° |
| 2026-05-06 15:33 | 49.79171 | 0.11390 | 34276 ft | 487 kts | 169° |
| 2026-05-06 15:33 | 49.75869 | 0.12675 | 34533 ft | 487 kts | 169° |
| 2026-05-06 15:33 | 49.72628 | 0.13935 | 34763 ft | 487 kts | 169° |
| 2026-05-06 15:33 | 49.69340 | 0.15212 | 34967 ft | 487 kts | 169° |
| 2026-05-06 15:34 | 49.66048 | 0.16498 | 35210 ft | 487 kts | 169° |
| 2026-05-06 15:34 | 49.62773 | 0.17808 | 35436 ft | 487 kts | 169° |
| 2026-05-06 15:34 | 49.59498 | 0.19135 | 35633 ft | 487 kts | 169° |
| 2026-05-06 15:34 | 49.56208 | 0.20475 | 35819 ft | 487 kts | 169° |
| 2026-05-06 15:35 | 49.52932 | 0.21808 | 36040 ft | 487 kts | 169° |
| 2026-05-06 15:35 | 49.49648 | 0.23138 | 36208 ft | 488 kts | 169° |
| 2026-05-06 15:35 | 49.46365 | 0.24461 | 36363 ft | 488 kts | 169° |
| 2026-05-06 15:35 | 49.44196 | 0.25333 | 36499 ft | 487 kts | 169° |